Time;durP1;ratioP1;P1;durP2;ratioP2;P2;SDS_P1;SDS_P2;PMS_P1;PMS_P2;Temp;Humidity;BMP_temperature;BMP_pressure;BME280_temperature;BME280_humidity;BME280_pressure;Samples;Min_cycle;Max_cycle;Signal;HPM_P1;HPM_P2
2021/08/14 00:00:55;;;;;;;10.57;8.37;;;;;;;;;;5013702;28;20535;-45
2021/08/14 00:03:21;;;;;;;17.00;8.50;;;;;;;;;;5012848;28;20378;-45
2021/08/14 00:05:47;;;;;;;12.47;7.50;;;;;;;;;;5013961;28;20407;-47
2021/08/14 00:08:13;;;;;;;17.60;9.00;;;;;;;;;;5013686;28;20473;-46
2021/08/14 00:10:38;;;;;;;9.93;7.90;;;;;;;;;;5013387;28;21042;-44
2021/08/14 00:13:04;;;;;;;10.60;8.00;;;;;;;;;;5013550;28;20411;-44
2021/08/14 00:15:30;;;;;;;18.40;8.10;;;;;;;;;;5013422;28;20411;-44
2021/08/14 00:17:56;;;;;;;13.10;8.77;;;;;;;;;;5013461;28;20406;-44
2021/08/14 00:20:22;;;;;;;15.97;8.83;;;;;;;;;;5013092;28;20926;-44
2021/08/14 00:22:48;;;;;;;14.07;8.77;;;;;;;;;;5013416;28;20884;-44
2021/08/14 00:25:14;;;;;;;10.90;8.97;;;;;;;;;;5013187;28;20473;-44
2021/08/14 00:27:40;;;;;;;11.50;8.10;;;;;;;;;;5013052;28;20870;-44
2021/08/14 00:30:07;;;;;;;10.80;8.77;;;;;;;;;;5012935;28;20425;-44
2021/08/14 00:32:33;;;;;;;11.60;8.20;;;;;;;;;;5013189;28;20416;-44
2021/08/14 00:34:59;;;;;;;10.20;7.60;;;;;;;;;;5013043;28;20453;-44
2021/08/14 00:37:24;;;;;;;13.33;9.00;;;;;;;;;;5012819;28;20975;-44
2021/08/14 00:39:50;;;;;;;11.80;7.97;;;;;;;;;;5012588;28;20468;-44
2021/08/14 00:42:16;;;;;;;10.47;8.10;;;;;;;;;;5013152;28;20465;-44
2021/08/14 00:44:42;;;;;;;13.10;9.90;;;;;;;;;;5012880;28;20429;-45
2021/08/14 00:47:08;;;;;;;8.80;7.90;;;;;;;;;;5012731;28;20407;-45
2021/08/14 00:49:34;;;;;;;11.60;8.47;;;;;;;;;;5012593;28;20425;-45
2021/08/14 00:52:01;;;;;;;12.47;8.83;;;;;;;;;;5012720;28;20410;-45
2021/08/14 00:54:27;;;;;;;13.53;8.40;;;;;;;;;;5012559;28;20374;-44
2021/08/14 00:56:54;;;;;;;10.33;8.50;;;;;;;;;;5012520;28;20779;-44
2021/08/14 00:59:20;;;;;;;10.33;8.43;;;;;;;;;;5012318;28;20419;-45
2021/08/14 01:01:46;;;;;;;13.23;8.60;;;;;;;;;;5011852;28;20393;-46
2021/08/14 01:04:16;;;;;;;16.47;8.53;;;;;;;;;;5011956;28;20416;-44
2021/08/14 01:06:42;;;;;;;12.73;8.47;;;;;;;;;;5012052;28;20435;-44
2021/08/14 01:09:08;;;;;;;12.97;8.57;;;;;;;;;;5012244;28;20398;-44
2021/08/14 01:11:36;;;;;;;10.50;8.20;;;;;;;;;;5012136;28;20794;-44
2021/08/14 01:14:02;;;;;;;12.60;7.80;;;;;;;;;;5012460;28;20405;-44
2021/08/14 01:16:28;;;;;;;10.50;7.80;;;;;;;;;;5011683;28;20406;-45
2021/08/14 01:18:54;;;;;;;14.47;8.53;;;;;;;;;;5012148;28;20575;-44
2021/08/14 01:21:23;;;;;;;13.60;7.90;;;;;;;;;;5011849;28;20524;-45
2021/08/14 01:23:50;;;;;;;9.53;8.27;;;;;;;;;;5012124;28;20887;-44
2021/08/14 01:26:17;;;;;;;17.73;8.80;;;;;;;;;;5011903;28;20399;-46
2021/08/14 01:28:43;;;;;;;12.40;8.63;;;;;;;;;;5012938;28;20912;-45
2021/08/14 01:31:11;;;;;;;9.40;8.40;;;;;;;;;;5011742;28;20736;-45
2021/08/14 01:33:38;;;;;;;10.13;7.43;;;;;;;;;;5012039;28;20411;-46
2021/08/14 01:36:04;;;;;;;16.63;8.33;;;;;;;;;;5011704;28;20382;-45
2021/08/14 01:38:30;;;;;;;10.80;8.00;;;;;;;;;;5011785;28;21030;-45
2021/08/14 01:40:56;;;;;;;13.13;8.87;;;;;;;;;;5011552;28;20527;-45
2021/08/14 01:43:22;;;;;;;9.60;8.40;;;;;;;;;;5011896;28;20374;-45
2021/08/14 01:45:48;;;;;;;9.43;8.53;;;;;;;;;;5011703;28;20485;-44
2021/08/14 01:48:15;;;;;;;12.37;9.10;;;;;;;;;;5011671;28;20422;-45
2021/08/14 01:50:41;;;;;;;11.43;9.90;;;;;;;;;;5011390;28;20892;-45
2021/08/14 01:53:07;;;;;;;19.00;10.67;;;;;;;;;;5011907;28;20369;-44
2021/08/14 01:55:33;;;;;;;13.17;9.80;;;;;;;;;;5011777;28;20405;-45
2021/08/14 01:57:58;;;;;;;17.90;10.97;;;;;;;;;;5011744;28;20431;-45
2021/08/14 02:00:25;;;;;;;12.77;9.57;;;;;;;;;;5011494;28;20455;-45
2021/08/14 02:02:51;;;;;;;16.63;9.20;;;;;;;;;;5011926;28;20407;-44
2021/08/14 02:05:17;;;;;;;13.97;8.17;;;;;;;;;;5011706;28;20406;-45
2021/08/14 02:07:43;;;;;;;10.80;9.53;;;;;;;;;;5011581;28;20427;-45
2021/08/14 02:10:10;;;;;;;10.43;8.60;;;;;;;;;;5011334;28;20413;-45
2021/08/14 02:12:36;;;;;;;14.90;8.43;;;;;;;;;;5011602;28;20382;-45
2021/08/14 02:15:02;;;;;;;13.07;9.27;;;;;;;;;;5011437;28;20481;-46
2021/08/14 02:17:28;;;;;;;11.63;8.13;;;;;;;;;;5011240;28;20489;-45
2021/08/14 02:19:53;;;;;;;12.40;8.93;;;;;;;;;;5010952;28;20891;-45
2021/08/14 02:22:19;;;;;;;9.10;8.17;;;;;;;;;;5011142;28;20737;-44
2021/08/14 02:24:45;;;;;;;13.20;9.57;;;;;;;;;;5011357;28;20749;-45
2021/08/14 02:27:11;;;;;;;13.30;9.30;;;;;;;;;;5010278;28;20818;-45
2021/08/14 02:29:37;;;;;;;14.67;9.03;;;;;;;;;;5010909;28;20771;-45
2021/08/14 02:32:03;;;;;;;12.43;9.70;;;;;;;;;;5010982;28;20424;-45
2021/08/14 02:34:29;;;;;;;14.50;8.60;;;;;;;;;;5010972;28;20490;-45
2021/08/14 02:36:55;;;;;;;11.37;8.87;;;;;;;;;;5010737;28;20469;-45
2021/08/14 02:39:21;;;;;;;10.97;9.77;;;;;;;;;;5010835;28;20431;-45
2021/08/14 02:41:47;;;;;;;13.60;10.03;;;;;;;;;;5010681;28;20410;-45
2021/08/14 02:44:13;;;;;;;14.93;9.70;;;;;;;;;;5011001;28;20438;-45
2021/08/14 02:46:39;;;;;;;12.87;9.50;;;;;;;;;;5010820;28;20904;-45
2021/08/14 02:49:05;;;;;;;11.50;9.57;;;;;;;;;;5010706;28;20803;-45
2021/08/14 02:51:31;;;;;;;11.97;10.20;;;;;;;;;;5010754;28;20407;-45
2021/08/14 02:53:57;;;;;;;12.60;9.03;;;;;;;;;;5010781;28;20429;-46
2021/08/14 02:56:23;;;;;;;10.40;8.50;;;;;;;;;;5010659;28;20399;-46
2021/08/14 02:58:49;;;;;;;16.40;9.30;;;;;;;;;;5010746;28;20512;-44
2021/08/14 03:01:15;;;;;;;14.90;9.80;;;;;;;;;;5010450;28;20520;-45
2021/08/14 03:03:41;;;;;;;11.83;9.03;;;;;;;;;;5011170;28;20406;-45
2021/08/14 03:06:26;;;;;;;10.70;9.60;;;;;;;;;;5010848;28;20406;-45
2021/08/14 03:08:52;;;;;;;16.97;10.40;;;;;;;;;;5010579;28;20871;-45
2021/08/14 03:11:18;;;;;;;15.90;10.43;;;;;;;;;;5010502;28;20381;-45
2021/08/14 03:13:44;;;;;;;12.00;10.00;;;;;;;;;;5010630;28;20775;-45
2021/08/14 03:16:10;;;;;;;12.33;10.30;;;;;;;;;;5010909;28;20411;-44
2021/08/14 03:18:36;;;;;;;13.67;9.40;;;;;;;;;;5010774;28;20431;-45
2021/08/14 03:21:02;;;;;;;14.73;9.60;;;;;;;;;;5010233;28;20989;-45
2021/08/14 03:23:28;;;;;;;16.87;10.90;;;;;;;;;;5010521;28;20948;-45
2021/08/14 03:25:53;;;;;;;16.90;9.70;;;;;;;;;;5010467;28;20803;-46
2021/08/14 03:28:19;;;;;;;14.47;9.63;;;;;;;;;;5010525;28;20441;-45
2021/08/14 03:30:45;;;;;;;16.27;10.50;;;;;;;;;;5010277;28;20403;-45
2021/08/14 03:33:11;;;;;;;18.67;10.20;;;;;;;;;;5010458;28;20500;-45
2021/08/14 03:35:37;;;;;;;17.87;10.60;;;;;;;;;;5010400;28;20403;-45
2021/08/14 03:38:03;;;;;;;13.83;10.23;;;;;;;;;;5010904;28;20481;-45
2021/08/14 03:40:29;;;;;;;14.37;9.70;;;;;;;;;;5013916;28;20542;-44
2021/08/14 03:42:55;;;;;;;24.13;12.07;;;;;;;;;;5014089;28;20416;-45
2021/08/14 03:45:21;;;;;;;11.63;8.83;;;;;;;;;;5014001;28;20891;-45
2021/08/14 03:47:47;;;;;;;20.83;9.80;;;;;;;;;;5013937;28;20427;-45
2021/08/14 03:50:14;;;;;;;15.40;9.57;;;;;;;;;;5013828;28;20837;-44
2021/08/14 03:52:40;;;;;;;12.70;9.63;;;;;;;;;;5013760;28;20761;-46
2021/08/14 03:55:06;;;;;;;17.20;9.77;;;;;;;;;;5013844;28;20421;-44
2021/08/14 03:57:32;;;;;;;17.63;10.90;;;;;;;;;;5013670;28;20427;-46
2021/08/14 03:59:58;;;;;;;14.73;9.33;;;;;;;;;;5013338;28;20456;-45
2021/08/14 04:02:25;;;;;;;15.73;9.90;;;;;;;;;;5013608;28;20374;-45
2021/08/14 04:04:51;;;;;;;16.23;10.73;;;;;;;;;;5013631;28;20407;-45
2021/08/14 04:07:17;;;;;;;12.30;10.17;;;;;;;;;;5013553;28;20374;-45
2021/08/14 04:09:43;;;;;;;15.80;10.30;;;;;;;;;;5013544;28;20411;-45
2021/08/14 04:12:09;;;;;;;19.03;9.87;;;;;;;;;;5013576;28;20476;-45
2021/08/14 04:14:35;;;;;;;17.83;9.90;;;;;;;;;;5013493;28;20418;-46
2021/08/14 04:17:01;;;;;;;12.87;10.00;;;;;;;;;;5013307;28;20466;-44
2021/08/14 04:19:27;;;;;;;14.40;10.07;;;;;;;;;;5013636;28;20805;-45
2021/08/14 04:21:53;;;;;;;14.90;9.97;;;;;;;;;;5013188;28;20423;-45
2021/08/14 04:24:19;;;;;;;13.87;10.40;;;;;;;;;;5013300;28;20771;-45
2021/08/14 04:26:45;;;;;;;14.07;10.80;;;;;;;;;;5013111;28;20487;-45
2021/08/14 04:29:11;;;;;;;11.77;9.17;;;;;;;;;;5013504;28;20426;-45
2021/08/14 04:31:37;;;;;;;13.33;10.40;;;;;;;;;;5012939;28;20435;-46
2021/08/14 04:34:03;;;;;;;14.40;10.57;;;;;;;;;;5013094;28;20503;-45
2021/08/14 04:36:29;;;;;;;12.80;9.17;;;;;;;;;;5012935;28;20411;-45
2021/08/14 04:38:56;;;;;;;16.50;10.87;;;;;;;;;;5012805;28;20429;-45
2021/08/14 04:41:21;;;;;;;14.83;10.50;;;;;;;;;;5012761;28;20467;-45
2021/08/14 04:43:47;;;;;;;18.37;10.60;;;;;;;;;;5013329;28;20409;-45
2021/08/14 04:46:14;;;;;;;16.37;9.37;;;;;;;;;;5013043;28;21065;-45
2021/08/14 04:48:40;;;;;;;14.03;9.90;;;;;;;;;;5012848;28;20400;-45
2021/08/14 04:51:05;;;;;;;12.30;8.83;;;;;;;;;;5011852;28;20385;-45
2021/08/14 04:53:31;;;;;;;15.50;10.30;;;;;;;;;;5012691;28;20411;-45
2021/08/14 04:55:57;;;;;;;13.80;9.37;;;;;;;;;;5012624;28;20461;-45
2021/08/14 04:58:23;;;;;;;22.33;9.93;;;;;;;;;;5012422;28;20926;-45
2021/08/14 05:00:49;;;;;;;16.83;11.40;;;;;;;;;;5012332;28;20486;-45
2021/08/14 05:03:17;;;;;;;20.97;11.03;;;;;;;;;;5012477;28;20441;-45
2021/08/14 05:05:43;;;;;;;22.37;11.40;;;;;;;;;;5012635;28;20415;-45
2021/08/14 05:08:09;;;;;;;20.30;11.30;;;;;;;;;;5012234;28;20415;-45
2021/08/14 05:10:35;;;;;;;15.17;9.87;;;;;;;;;;5012203;28;20403;-45
2021/08/14 05:13:01;;;;;;;17.93;10.03;;;;;;;;;;5012661;28;20429;-46
2021/08/14 05:15:27;;;;;;;17.90;9.80;;;;;;;;;;5012352;28;20517;-45
2021/08/14 05:17:53;;;;;;;13.40;10.40;;;;;;;;;;5012045;28;20440;-44
2021/08/14 05:20:19;;;;;;;16.80;10.30;;;;;;;;;;5011918;28;20451;-45
2021/08/14 05:22:45;;;;;;;12.60;9.50;;;;;;;;;;5012060;28;20739;-45
2021/08/14 05:25:11;;;;;;;13.20;9.40;;;;;;;;;;5012489;28;20414;-45
2021/08/14 05:27:37;;;;;;;15.10;10.07;;;;;;;;;;5011871;28;20427;-45
2021/08/14 05:30:03;;;;;;;13.33;9.33;;;;;;;;;;5011862;28;20462;-45
2021/08/14 05:32:29;;;;;;;16.60;9.50;;;;;;;;;;5011942;28;20395;-45
2021/08/14 05:34:55;;;;;;;16.80;9.70;;;;;;;;;;5012277;28;20895;-45
2021/08/14 05:37:21;;;;;;;13.03;9.47;;;;;;;;;;5011562;28;20447;-46
2021/08/14 05:39:47;;;;;;;16.27;8.77;;;;;;;;;;5011544;28;20459;-45
2021/08/14 05:42:13;;;;;;;15.27;8.67;;;;;;;;;;5011808;28;20455;-46
2021/08/14 05:44:39;;;;;;;12.40;9.57;;;;;;;;;;5011770;28;20777;-46
2021/08/14 05:47:05;;;;;;;12.87;9.00;;;;;;;;;;5011657;28;20400;-45
2021/08/14 05:49:31;;;;;;;24.33;8.80;;;;;;;;;;5011696;28;20409;-45
2021/08/14 05:51:59;;;;;;;12.60;8.40;;;;;;;;;;5011580;28;20538;-45
2021/08/14 05:54:25;;;;;;;11.33;8.60;;;;;;;;;;5011496;28;20408;-45
2021/08/14 05:56:51;;;;;;;16.97;10.37;;;;;;;;;;5011598;28;20418;-45
2021/08/14 05:59:17;;;;;;;11.10;8.27;;;;;;;;;;5011361;28;20406;-45
2021/08/14 06:01:43;;;;;;;12.83;8.60;;;;;;;;;;5011246;28;20375;-45
2021/08/14 06:04:09;;;;;;;14.97;8.33;;;;;;;;;;5011397;28;20401;-45
2021/08/14 06:06:35;;;;;;;13.47;8.47;;;;;;;;;;5011328;28;20955;-44
2021/08/14 06:09:01;;;;;;;22.83;8.60;;;;;;;;;;5011159;28;20427;-45
2021/08/14 06:11:27;;;;;;;12.17;7.90;;;;;;;;;;5011205;28;20888;-45
2021/08/14 06:13:53;;;;;;;14.07;8.80;;;;;;;;;;5011234;28;20422;-46
2021/08/14 06:16:19;;;;;;;15.00;8.60;;;;;;;;;;5011289;28;20415;-45
2021/08/14 06:18:47;;;;;;;20.20;7.53;;;;;;;;;;5011252;28;20421;-45
2021/08/14 06:21:13;;;;;;;14.20;8.07;;;;;;;;;;5011530;28;20514;-45
2021/08/14 06:23:39;;;;;;;13.63;9.10;;;;;;;;;;5011132;28;20491;-44
2021/08/14 06:26:04;;;;;;;17.40;8.50;;;;;;;;;;5011429;28;20375;-45
2021/08/14 06:28:31;;;;;;;12.00;7.90;;;;;;;;;;5011066;28;20395;-45
2021/08/14 06:30:57;;;;;;;12.07;8.40;;;;;;;;;;5011168;28;20380;-45
2021/08/14 06:33:23;;;;;;;12.73;7.60;;;;;;;;;;5011147;28;20886;-45
2021/08/14 06:35:49;;;;;;;9.43;7.67;;;;;;;;;;5011089;28;20763;-45
2021/08/14 06:38:15;;;;;;;14.00;7.97;;;;;;;;;;5010756;28;20531;-45
2021/08/14 06:40:41;;;;;;;15.73;8.57;;;;;;;;;;5010834;28;20504;-45
2021/08/14 06:43:07;;;;;;;17.23;8.43;;;;;;;;;;5010919;28;20409;-44
2021/08/14 06:45:33;;;;;;;15.57;8.40;;;;;;;;;;5010974;28;20441;-45
2021/08/14 06:47:59;;;;;;;14.90;8.27;;;;;;;;;;5010818;28;20455;-45
2021/08/14 06:50:25;;;;;;;18.10;8.07;;;;;;;;;;5010659;28;20419;-46
2021/08/14 06:52:51;;;;;;;10.07;7.00;;;;;;;;;;5010840;28;20472;-46
2021/08/14 06:55:16;;;;;;;12.80;6.43;;;;;;;;;;5010829;28;20389;-46
2021/08/14 06:57:42;;;;;;;17.80;8.50;;;;;;;;;;5010903;28;20514;-45
2021/08/14 07:00:09;;;;;;;12.90;6.60;;;;;;;;;;5010565;28;20977;-45
2021/08/14 07:02:34;;;;;;;12.47;7.30;;;;;;;;;;5010819;28;20410;-45
2021/08/14 07:05:01;;;;;;;8.77;6.00;;;;;;;;;;5010612;28;20390;-44
2021/08/14 07:07:27;;;;;;;14.47;6.60;;;;;;;;;;5010530;28;20919;-45
2021/08/14 07:09:53;;;;;;;7.80;5.70;;;;;;;;;;5010463;28;20410;-46
2021/08/14 07:12:19;;;;;;;15.77;7.17;;;;;;;;;;5010691;28;20738;-45
2021/08/14 07:14:45;;;;;;;12.97;6.80;;;;;;;;;;5014235;28;20460;-45
2021/08/14 07:17:11;;;;;;;9.40;6.13;;;;;;;;;;5014259;28;20381;-45
2021/08/14 07:19:37;;;;;;;12.93;6.10;;;;;;;;;;5013760;28;20374;-45
2021/08/14 07:22:03;;;;;;;17.30;6.53;;;;;;;;;;5013732;28;20413;-46
2021/08/14 07:24:29;;;;;;;10.90;6.17;;;;;;;;;;5014333;28;20396;-46
2021/08/14 07:26:57;;;;;;;11.50;6.73;;;;;;;;;;5016261;28;20799;-45
2021/08/14 07:29:23;;;;;;;10.83;5.50;;;;;;;;;;5014208;28;21014;-45
2021/08/14 07:31:48;;;;;;;7.57;4.40;;;;;;;;;;5014217;28;20486;-46
2021/08/14 07:34:14;;;;;;;9.90;4.90;;;;;;;;;;5014094;28;20805;-45
2021/08/14 07:36:40;;;;;;;11.37;5.53;;;;;;;;;;5013876;28;20761;-45
2021/08/14 07:39:06;;;;;;;8.37;5.30;;;;;;;;;;5013953;28;20920;-45
2021/08/14 07:41:32;;;;;;;9.40;4.53;;;;;;;;;;5014172;28;20456;-45
2021/08/14 07:43:58;;;;;;;13.83;5.33;;;;;;;;;;5013986;28;20420;-45
2021/08/14 07:46:24;;;;;;;12.53;4.87;;;;;;;;;;5013862;28;20410;-46
2021/08/14 07:48:50;;;;;;;8.63;4.27;;;;;;;;;;5013827;28;20438;-45
2021/08/14 07:51:16;;;;;;;7.70;4.30;;;;;;;;;;5014419;28;20426;-46
2021/08/14 07:53:42;;;;;;;7.27;3.60;;;;;;;;;;5013787;28;20785;-47
2021/08/14 07:56:08;;;;;;;8.10;4.60;;;;;;;;;;5013825;28;20487;-47
2021/08/14 07:58:34;;;;;;;10.33;4.90;;;;;;;;;;5013742;28;20415;-46
2021/08/14 08:01:00;;;;;;;10.60;4.50;;;;;;;;;;5013428;28;20454;-46
2021/08/14 08:03:26;;;;;;;7.80;3.40;;;;;;;;;;5013708;28;20407;-47
2021/08/14 08:05:52;;;;;;;11.43;3.90;;;;;;;;;;5013507;28;20400;-46
2021/08/14 08:08:18;;;;;;;8.13;4.70;;;;;;;;;;5013504;28;20918;-46
2021/08/14 08:10:44;;;;;;;9.00;4.03;;;;;;;;;;5013352;28;20284;-47
2021/08/14 08:13:10;;;;;;;5.00;3.47;;;;;;;;;;5013585;28;20282;-48
2021/08/14 08:15:36;;;;;;;6.23;3.30;;;;;;;;;;5013516;28;20679;-47
2021/08/14 08:18:02;;;;;;;7.70;3.77;;;;;;;;;;5013332;28;20485;-47
2021/08/14 08:20:28;;;;;;;10.37;3.60;;;;;;;;;;5013062;28;20462;-47
2021/08/14 08:22:54;;;;;;;8.70;4.27;;;;;;;;;;5013611;28;20247;-47
2021/08/14 08:25:20;;;;;;;8.97;4.10;;;;;;;;;;5012272;28;20395;-47
2021/08/14 08:27:47;;;;;;;8.20;3.83;;;;;;;;;;5013550;28;20415;-47
2021/08/14 08:30:14;;;;;;;6.60;3.90;;;;;;;;;;5013437;28;20419;-47
2021/08/14 08:32:40;;;;;;;10.23;4.30;;;;;;;;;;5013382;28;20414;-46
2021/08/14 08:35:06;;;;;;;7.50;3.80;;;;;;;;;;5013407;28;20407;-47
2021/08/14 08:37:32;;;;;;;9.83;3.70;;;;;;;;;;5013086;28;20447;-47
2021/08/14 08:39:58;;;;;;;6.73;3.70;;;;;;;;;;5012883;28;20472;-47
2021/08/14 08:42:24;;;;;;;8.10;3.80;;;;;;;;;;5013031;28;20403;-47
2021/08/14 08:44:51;;;;;;;6.13;3.63;;;;;;;;;;5013001;28;20871;-48
2021/08/14 08:47:17;;;;;;;4.87;3.30;;;;;;;;;;5012654;28;20415;-47
2021/08/14 08:49:56;;;;;;;8.33;3.73;;;;;;;;;;5012894;28;20423;-47
2021/08/14 08:52:22;;;;;;;5.10;3.40;;;;;;;;;;5012733;28;20399;-46
2021/08/14 08:54:49;;;;;;;8.17;3.97;;;;;;;;;;5012700;28;20411;-47
2021/08/14 08:57:16;;;;;;;6.70;3.20;;;;;;;;;;5012494;28;20404;-47
2021/08/14 08:59:42;;;;;;;8.63;4.37;;;;;;;;;;5012424;28;20407;-47
2021/08/14 09:02:40;;;;;;;6.63;3.30;;;;;;;;;;5012384;28;20511;-46
2021/08/14 09:05:10;;;;;;;7.60;3.40;;;;;;;;;;4958945;28;20426;-46
2021/08/14 09:07:37;;;;;;;5.60;3.30;;;;;;;;;;5012393;28;20574;-47
2021/08/14 09:10:05;;;;;;;8.33;3.47;;;;;;;;;;5012504;28;20456;-47
2021/08/14 09:12:40;;;;;;;10.33;3.43;;;;;;;;;;5012214;28;20416;-47
2021/08/14 09:15:07;;;;;;;7.83;3.97;;;;;;;;;;5012510;28;20413;-46
2021/08/14 09:17:33;;;;;;;9.30;3.80;;;;;;;;;;5012114;28;20462;-47
2021/08/14 09:20:25;;;;;;;12.33;3.60;;;;;;;;;;5011979;28;20463;-47
2021/08/14 09:23:00;;;;;;;7.33;3.97;;;;;;;;;;5007708;28;20780;-46
2021/08/14 09:25:26;;;;;;;6.33;3.20;;;;;;;;;;5012153;28;20406;-48
2021/08/14 09:28:02;;;;;;;8.17;3.50;;;;;;;;;;5011907;28;20419;-47
2021/08/14 09:30:48;;;;;;;4.60;3.50;;;;;;;;;;5011907;28;20490;-47
2021/08/14 09:33:15;;;;;;;7.13;3.80;;;;;;;;;;4995288;28;20411;-48
2021/08/14 09:35:42;;;;;;;10.00;3.43;;;;;;;;;;5011576;28;20403;-48
2021/08/14 09:38:09;;;;;;;6.10;3.37;;;;;;;;;;5011354;28;20446;-47
2021/08/14 09:40:43;;;;;;;4.53;3.00;;;;;;;;;;5011500;28;20450;-46
2021/08/14 09:43:09;;;;;;;8.93;3.27;;;;;;;;;;5012181;28;20407;-47
2021/08/14 09:45:36;;;;;;;9.43;3.17;;;;;;;;;;5010947;28;20607;-47
2021/08/14 09:48:15;;;;;;;4.47;2.70;;;;;;;;;;5011699;28;20427;-46
2021/08/14 09:50:41;;;;;;;5.70;2.80;;;;;;;;;;5011585;28;20410;-46
2021/08/14 09:53:15;;;;;;;8.20;3.50;;;;;;;;;;5011726;28;20427;-47
2021/08/14 09:55:41;;;;;;;10.03;3.63;;;;;;;;;;5011992;28;20407;-47
2021/08/14 09:58:12;;;;;;;4.83;3.17;;;;;;;;;;5011256;28;20440;-48
2021/08/14 10:00:39;;;;;;;5.43;3.30;;;;;;;;;;5011181;28;20465;-47
2021/08/14 10:03:06;;;;;;;7.33;3.87;;;;;;;;;;5011613;28;20498;-47
2021/08/14 10:05:33;;;;;;;4.23;2.97;;;;;;;;;;5011507;28;20911;-47
2021/08/14 10:08:00;;;;;;;4.20;2.70;;;;;;;;;;5011202;28;20431;-48
2021/08/14 10:10:26;;;;;;;5.73;3.87;;;;;;;;;;5011215;28;20399;-48
2021/08/14 10:12:53;;;;;;;5.77;2.83;;;;;;;;;;5011084;28;20565;-47
2021/08/14 10:15:19;;;;;;;7.30;3.40;;;;;;;;;;5011375;28;20399;-48
2021/08/14 10:17:45;;;;;;;11.80;3.13;;;;;;;;;;5011124;28;20426;-47
2021/08/14 10:20:12;;;;;;;6.30;3.00;;;;;;;;;;5011012;28;20454;-47
2021/08/14 10:22:37;;;;;;;7.17;3.37;;;;;;;;;;5011431;28;20746;-47
2021/08/14 10:25:04;;;;;;;5.87;3.37;;;;;;;;;;5011164;28;20395;-47
2021/08/14 10:27:54;;;;;;;8.30;3.80;;;;;;;;;;5010774;28;20192;-46
2021/08/14 10:30:35;;;;;;;6.80;3.17;;;;;;;;;;5011075;28;20865;-47
2021/08/14 10:33:02;;;;;;;7.27;2.80;;;;;;;;;;5011143;28;20410;-48
2021/08/14 10:35:33;;;;;;;7.17;3.50;;;;;;;;;;5011143;28;20411;-48
2021/08/14 10:37:59;;;;;;;6.33;2.70;;;;;;;;;;5010735;28;20969;-48
2021/08/14 10:40:25;;;;;;;9.30;3.30;;;;;;;;;;5010948;28;20825;-47
2021/08/14 10:42:54;;;;;;;6.43;2.70;;;;;;;;;;5011318;28;20404;-47
2021/08/14 10:45:31;;;;;;;4.40;2.50;;;;;;;;;;5011236;28;20481;-48
2021/08/14 10:48:02;;;;;;;7.23;3.47;;;;;;;;;;5010444;28;20859;-47
2021/08/14 10:50:32;;;;;;;7.40;3.03;;;;;;;;;;5010810;28;20411;-48
2021/08/14 10:53:18;;;;;;;5.33;3.03;;;;;;;;;;5010924;28;20403;-50
2021/08/14 10:55:45;;;;;;;5.43;2.53;;;;;;;;;;5011112;28;20764;-49
2021/08/14 10:58:20;;;;;;;5.07;2.90;;;;;;;;;;5010558;28;20938;-47
2021/08/14 11:00:46;;;;;;;4.90;2.90;;;;;;;;;;5010472;28;20446;-48
2021/08/14 11:03:13;;;;;;;7.23;3.23;;;;;;;;;;5010721;28;20391;-49
2021/08/14 11:05:41;;;;;;;6.00;3.13;;;;;;;;;;5010810;28;20410;-47
2021/08/14 11:08:25;;;;;;;4.27;2.47;;;;;;;;;;5010586;28;20427;-47
2021/08/14 11:10:51;;;;;;;5.83;2.40;;;;;;;;;;5010568;28;20399;-47
2021/08/14 11:13:37;;;;;;;7.30;3.00;;;;;;;;;;5010523;28;20567;-47
2021/08/14 11:16:03;;;;;;;7.53;3.00;;;;;;;;;;5010634;28;20921;-47
2021/08/14 11:18:48;;;;;;;4.10;2.60;;;;;;;;;;5010559;28;20778;-48
2021/08/14 11:21:14;;;;;;;4.83;2.73;;;;;;;;;;5010364;28;20516;-48
2021/08/14 11:23:55;;;;;;;6.07;3.27;;;;;;;;;;5010863;28;20404;-47
2021/08/14 11:26:31;;;;;;;5.33;2.50;;;;;;;;;;5010445;28;20399;-47
2021/08/14 11:28:58;;;;;;;4.40;2.70;;;;;;;;;;5010393;28;20490;-47
2021/08/14 11:31:25;;;;;;;4.57;2.70;;;;;;;;;;5010345;28;20461;-47
2021/08/14 11:33:58;;;;;;;4.93;2.53;;;;;;;;;;5010558;28;20403;-47
2021/08/14 11:36:28;;;;;;;3.60;2.80;;;;;;;;;;5010362;28;20403;-47
2021/08/14 11:39:00;;;;;;;3.40;2.60;;;;;;;;;;5010220;28;20545;-47
2021/08/14 11:41:26;;;;;;;5.57;2.93;;;;;;;;;;5010212;28;20447;-48
2021/08/14 11:43:51;;;;;;;4.70;2.43;;;;;;;;;;5010256;28;20410;-47
2021/08/14 11:46:23;;;;;;;4.90;2.70;;;;;;;;;;5010356;28;20430;-47
2021/08/14 11:48:49;;;;;;;3.70;2.50;;;;;;;;;;5010099;28;20204;-49
2021/08/14 11:51:22;;;;;;;3.27;2.40;;;;;;;;;;5010173;28;20399;-47
2021/08/14 11:53:49;;;;;;;7.43;2.80;;;;;;;;;;5010324;28;20727;-48
2021/08/14 11:56:17;;;;;;;4.10;2.43;;;;;;;;;;5010307;28;20403;-48
2021/08/14 11:58:43;;;;;;;4.47;2.40;;;;;;;;;;5010521;28;20614;-48
2021/08/14 12:01:12;;;;;;;3.70;2.13;;;;;;;;;;5013380;28;20458;-47
2021/08/14 12:03:38;;;;;;;6.53;2.30;;;;;;;;;;5013780;28;20414;-47
2021/08/14 12:06:09;;;;;;;3.17;2.50;;;;;;;;;;5013795;28;20407;-47
2021/08/14 12:08:39;;;;;;;9.90;2.60;;;;;;;;;;5013869;28;20430;-47
2021/08/14 12:11:07;;;;;;;4.13;2.73;;;;;;;;;;5013426;28;20535;-48
2021/08/14 12:13:34;;;;;;;2.50;2.23;;;;;;;;;;5013529;28;20414;-47
2021/08/14 12:16:08;;;;;;;3.53;2.40;;;;;;;;;;5013347;28;20414;-49
2021/08/14 12:18:35;;;;;;;5.60;2.57;;;;;;;;;;5013417;28;20426;-48
2021/08/14 12:21:02;;;;;;;3.83;2.93;;;;;;;;;;5013391;28;20537;-47
2021/08/14 12:23:28;;;;;;;10.03;4.83;;;;;;;;;;5013419;28;20403;-49
2021/08/14 12:25:56;;;;;;;4.40;2.80;;;;;;;;;;5013148;28;20397;-47
2021/08/14 12:28:26;;;;;;;3.97;2.60;;;;;;;;;;5013156;28;20423;-48
2021/08/14 12:30:52;;;;;;;8.33;3.23;;;;;;;;;;5012945;28;20957;-47
2021/08/14 12:33:36;;;;;;;5.43;3.50;;;;;;;;;;5013191;28;20418;-48
2021/08/14 12:36:05;;;;;;;8.30;3.50;;;;;;;;;;5013124;28;20399;-47
2021/08/14 12:38:33;;;;;;;3.37;2.20;;;;;;;;;;5012976;28;20451;-47
2021/08/14 12:41:13;;;;;;;8.97;2.70;;;;;;;;;;5013108;28;20840;-47
2021/08/14 12:43:49;;;;;;;3.50;2.83;;;;;;;;;;5013573;28;21071;-47
2021/08/14 12:46:23;;;;;;;5.33;2.37;;;;;;;;;;5013292;28;20481;-47
2021/08/14 12:49:08;;;;;;;3.37;2.40;;;;;;;;;;5012571;28;20446;-46
2021/08/14 12:51:34;;;;;;;9.30;8.30;;;;;;;;;;4996242;28;20780;-47
2021/08/14 12:54:09;;;;;;;4.30;2.80;;;;;;;;;;4996508;28;20403;-47
2021/08/14 12:56:38;;;;;;;2.80;2.10;;;;;;;;;;5012724;28;21158;-48
2021/08/14 12:59:04;;;;;;;4.70;3.00;;;;;;;;;;5012697;28;20453;-48
2021/08/14 13:01:30;;;;;;;5.93;2.90;;;;;;;;;;5012316;28;20891;-47
2021/08/14 13:03:56;;;;;;;3.20;2.20;;;;;;;;;;5012643;28;20511;-48
2021/08/14 13:06:22;;;;;;;5.93;2.50;;;;;;;;;;5007506;28;20431;-48
2021/08/14 13:08:48;;;;;;;6.13;3.30;;;;;;;;;;4992939;28;20189;-47
2021/08/14 13:11:14;;;;;;;3.33;2.60;;;;;;;;;;4991997;28;20412;-47
2021/08/14 13:13:40;;;;;;;2.50;2.30;;;;;;;;;;4992917;28;20263;-47
2021/08/14 13:16:06;;;;;;;3.70;2.60;;;;;;;;;;4992709;28;20176;-47
2021/08/14 13:18:32;;;;;;;2.93;2.27;;;;;;;;;;4992799;28;20432;-48
2021/08/14 13:21:00;;;;;;;7.00;2.60;;;;;;;;;;4992413;28;20517;-48
2021/08/14 13:23:26;;;;;;;4.40;2.50;;;;;;;;;;4992749;28;20193;-47
2021/08/14 13:25:54;;;;;;;5.03;2.37;;;;;;;;;;4992526;28;20403;-48
2021/08/14 13:28:20;;;;;;;4.43;2.63;;;;;;;;;;4992538;28;20419;-47
2021/08/14 13:30:48;;;;;;;4.13;2.60;;;;;;;;;;4992202;28;20399;-47
2021/08/14 13:33:15;;;;;;;6.40;4.33;;;;;;;;;;4992447;28;20915;-47
2021/08/14 13:35:41;;;;;;;7.80;3.00;;;;;;;;;;4992367;28;20439;-47
2021/08/14 13:38:07;;;;;;;4.30;3.07;;;;;;;;;;4992268;28;20479;-47
2021/08/14 13:40:33;;;;;;;6.30;2.90;;;;;;;;;;4992016;28;20459;-47
2021/08/14 13:42:59;;;;;;;3.43;2.50;;;;;;;;;;4997879;28;20596;-48
2021/08/14 13:45:25;;;;;;;3.33;2.43;;;;;;;;;;5011743;28;20404;-47
2021/08/14 13:47:51;;;;;;;4.10;2.80;;;;;;;;;;5011734;28;20433;-47
2021/08/14 13:50:17;;;;;;;2.77;2.40;;;;;;;;;;5011539;28;20895;-46
2021/08/14 13:52:46;;;;;;;3.00;2.70;;;;;;;;;;5012262;28;20415;-47
2021/08/14 13:55:13;;;;;;;3.37;2.63;;;;;;;;;;5011681;28;20231;-47
2021/08/14 13:57:39;;;;;;;4.13;2.87;;;;;;;;;;5011558;28;20427;-48
2021/08/14 14:00:05;;;;;;;6.20;3.10;;;;;;;;;;5011216;28;20462;-47
2021/08/14 14:02:31;;;;;;;4.97;2.77;;;;;;;;;;5011580;28;20407;-47
2021/08/14 14:04:57;;;;;;;3.73;2.83;;;;;;;;;;5011003;28;20415;-47
2021/08/14 14:07:23;;;;;;;6.27;2.80;;;;;;;;;;5009677;28;20443;-47
2021/08/14 14:09:50;;;;;;;8.23;2.87;;;;;;;;;;5010377;28;20919;-47
2021/08/14 14:12:16;;;;;;;5.60;2.80;;;;;;;;;;5010912;28;20490;-47
2021/08/14 14:14:42;;;;;;;6.00;2.73;;;;;;;;;;5010967;28;20506;-47
2021/08/14 14:17:08;;;;;;;10.00;3.40;;;;;;;;;;5010939;28;20415;-47
2021/08/14 14:19:34;;;;;;;3.87;2.70;;;;;;;;;;5010122;28;20430;-47
2021/08/14 14:22:00;;;;;;;2.67;2.47;;;;;;;;;;5020688;28;20548;-47
2021/08/14 14:24:26;;;;;;;4.40;2.90;;;;;;;;;;5030394;28;20163;-47
2021/08/14 14:26:51;;;;;;;4.80;3.10;;;;;;;;;;5030772;28;20402;-47
2021/08/14 14:29:17;;;;;;;4.47;3.23;;;;;;;;;;5030740;28;20452;-47
2021/08/14 14:31:43;;;;;;;4.00;3.20;;;;;;;;;;5030760;28;20523;-47
2021/08/14 14:34:10;;;;;;;6.57;3.40;;;;;;;;;;5031113;28;20406;-48
2021/08/14 14:36:35;;;;;;;3.50;2.60;;;;;;;;;;5030988;28;20410;-48